createdAt,value
2023-03-20T00:02:21.466Z,68.02
2023-03-20T00:04:48.375Z,67.96
2023-03-20T00:07:16.651Z,68.06
2023-03-20T00:09:43.652Z,68.14
2023-03-20T00:12:24.044Z,68.25
2023-03-20T00:14:51.386Z,68.14
2023-03-20T00:17:21.321Z,68.43
2023-03-20T00:19:48.745Z,68.32
2023-03-20T00:22:15.638Z,68.42
2023-03-20T00:24:42.890Z,68.50
2023-03-20T00:27:14.541Z,68.60
2023-03-20T00:29:41.820Z,68.53
2023-03-20T00:32:13.669Z,68.65
2023-03-20T00:34:41.355Z,68.62
2023-03-20T00:37:10.012Z,68.79
2023-03-20T00:39:37.015Z,68.88
2023-03-20T00:42:06.455Z,68.86
2023-03-20T00:44:42.105Z,68.87
2023-03-20T00:47:18.821Z,69.05
2023-03-20T00:49:49.105Z,68.80
2023-03-20T00:52:18.052Z,68.91
2023-03-20T00:54:45.111Z,69.00
2023-03-20T00:57:18.182Z,68.87
2023-03-20T00:59:58.428Z,68.86
2023-03-20T01:02:31.454Z,68.99
2023-03-20T01:05:00.216Z,68.85
2023-03-20T01:07:27.923Z,68.63
2023-03-20T01:09:55.640Z,68.59
2023-03-20T01:12:24.122Z,68.70
2023-03-20T01:14:55.006Z,68.76
2023-03-20T01:17:25.298Z,68.49
2023-03-20T01:19:52.795Z,68.76
2023-03-20T01:22:19.748Z,68.85
2023-03-20T01:24:47.633Z,68.69
2023-03-20T01:27:17.011Z,68.94
2023-03-20T01:29:44.206Z,68.76
2023-03-20T01:32:18.120Z,68.94
2023-03-20T01:34:48.578Z,68.80
2023-03-20T01:37:23.424Z,68.73
2023-03-20T01:39:50.884Z,68.89
2023-03-20T01:42:18.709Z,68.96
2023-03-20T01:44:47.475Z,68.92
2023-03-20T01:47:22.567Z,68.97
2023-03-20T01:50:23.093Z,69.08
2023-03-20T01:52:59.921Z,69.03
2023-03-20T01:55:29.138Z,69.10
2023-03-20T01:58:07.379Z,69.02
2023-03-20T02:00:35.453Z,68.85
2023-03-20T02:03:05.598Z,68.82
2023-03-20T02:05:56.076Z,68.91
2023-03-20T02:08:29.108Z,68.84
2023-03-20T02:10:59.958Z,68.94
2023-03-20T02:13:31.947Z,68.98
2023-03-20T02:16:10.949Z,68.96
2023-03-20T02:18:58.478Z,69.02
2023-03-20T02:21:50.404Z,68.91
2023-03-20T02:24:38.659Z,68.81
2023-03-20T02:27:19.612Z,68.84
2023-03-20T02:30:02.630Z,68.98
2023-03-20T02:32:52.533Z,69.17
2023-03-20T02:35:51.871Z,69.06
2023-03-20T02:38:43.699Z,68.87
2023-03-20T02:41:51.122Z,69.10
2023-03-20T02:44:40.216Z,68.89
2023-03-20T02:47:20.277Z,68.89
2023-03-20T02:49:53.169Z,68.97
2023-03-20T02:52:52.766Z,69.14
2023-03-20T02:55:42.750Z,69.34
2023-03-20T02:58:53.203Z,69.10
2023-03-20T03:01:44.392Z,69.05
2023-03-20T03:04:24.987Z,69.26
2023-03-20T03:06:56.151Z,69.06
2023-03-20T03:09:35.809Z,69.17
2023-03-20T03:12:10.696Z,69.53
2023-03-20T03:14:44.564Z,69.57
2023-03-20T03:17:16.945Z,69.51
2023-03-20T03:19:51.143Z,69.65
2023-03-20T03:22:23.950Z,69.50
2023-03-20T03:24:52.718Z,69.76
2023-03-20T03:27:25.958Z,69.96
2023-03-20T03:29:59.719Z,69.65
2023-03-20T03:32:30.892Z,69.64
2023-03-20T03:35:02.830Z,69.63
2023-03-20T03:37:36.726Z,69.65
2023-03-20T03:40:31.340Z,69.57
2023-03-20T03:43:04.147Z,69.55
2023-03-20T03:45:49.254Z,69.80
2023-03-20T03:48:27.570Z,69.72
2023-03-20T03:51:00.648Z,69.58
2023-03-20T03:53:32.712Z,69.50
2023-03-20T03:56:05.069Z,69.62
2023-03-20T03:58:37.941Z,69.50
2023-03-20T04:01:07.997Z,69.80
2023-03-20T04:03:39.711Z,69.71
2023-03-20T04:06:10.200Z,69.50
2023-03-20T04:08:37.283Z,69.53
2023-03-20T04:11:04.211Z,69.59
2023-03-20T04:13:31.424Z,69.56
2023-03-20T04:15:58.211Z,69.62
2023-03-20T04:18:27.317Z,69.63
2023-03-20T04:20:54.892Z,69.56
2023-03-20T04:23:21.897Z,69.75
2023-03-20T04:25:49.970Z,69.85
2023-03-20T04:28:16.808Z,69.79
2023-03-20T04:31:02.446Z,69.85
2023-03-20T04:33:49.659Z,69.83
2023-03-20T04:36:35.120Z,69.65
2023-03-20T04:39:03.819Z,69.58
2023-03-20T04:41:30.805Z,69.77
2023-03-20T04:43:58.302Z,69.81
2023-03-20T04:46:25.435Z,69.63
2023-03-20T04:48:52.843Z,69.48
2023-03-20T04:51:21.347Z,69.59
2023-03-20T04:53:50.427Z,69.44
2023-03-20T04:56:17.765Z,69.54
2023-03-20T04:58:45.595Z,69.50
2023-03-20T05:01:12.980Z,69.56
2023-03-20T05:03:40.414Z,69.56
2023-03-20T05:06:07.851Z,69.54
2023-03-20T05:08:34.722Z,69.61
2023-03-20T05:11:04.506Z,70.05
2023-03-20T05:13:49.941Z,69.72
2023-03-20T05:16:45.992Z,69.67
2023-03-20T05:19:33.104Z,69.75
2023-03-20T05:22:33.991Z,69.65
2023-03-20T05:25:10.174Z,69.64
2023-03-20T05:28:03.573Z,69.65
2023-03-20T05:30:37.092Z,69.80
2023-03-20T05:33:21.637Z,69.65
2023-03-20T05:36:11.583Z,69.66
2023-03-20T05:38:54.922Z,69.64
2023-03-20T05:41:21.843Z,69.91
2023-03-20T05:44:24.232Z,69.67
2023-03-20T05:47:26.049Z,69.71
2023-03-20T05:50:01.634Z,69.88
2023-03-20T05:52:51.600Z,69.76
2023-03-20T05:55:44.889Z,69.74
2023-03-20T05:58:35.437Z,69.58
2023-03-20T06:01:09.321Z,69.67
2023-03-20T06:03:42.673Z,69.63
2023-03-20T06:06:16.063Z,69.80
2023-03-20T06:08:48.566Z,69.94
2023-03-20T06:11:16.203Z,69.95
2023-03-20T06:13:43.558Z,70.02
2023-03-20T06:16:11.575Z,69.97
2023-03-20T06:18:39.430Z,70.27
2023-03-20T06:21:08.111Z,70.13
2023-03-20T06:23:34.919Z,70.29
2023-03-20T06:26:02.465Z,70.34
2023-03-20T06:28:31.830Z,70.36
2023-03-20T06:31:07.042Z,70.34
2023-03-20T06:33:34.271Z,70.64
2023-03-20T06:36:02.928Z,70.65
2023-03-20T06:38:31.584Z,70.63
2023-03-20T06:41:02.851Z,70.82
2023-03-20T06:43:29.861Z,70.98
2023-03-20T06:45:56.770Z,71.00
2023-03-20T06:48:26.951Z,71.15
2023-03-20T06:50:54.391Z,70.93
2023-03-20T06:53:24.510Z,71.20
2023-03-20T06:56:01.970Z,71.00
2023-03-20T06:58:29.376Z,71.18
2023-03-20T07:00:56.333Z,71.45
2023-03-20T07:03:23.443Z,71.48
2023-03-20T07:05:51.219Z,71.68
2023-03-20T07:08:19.527Z,71.55
2023-03-20T07:10:49.067Z,71.32
2023-03-20T07:13:18.670Z,71.48
2023-03-20T07:16:03.001Z,71.53
2023-03-20T07:18:33.739Z,71.43
2023-03-20T07:21:03.689Z,71.49
2023-03-20T07:23:31.854Z,71.47
2023-03-20T07:25:59.547Z,71.49
2023-03-20T07:28:27.127Z,71.36
2023-03-20T07:31:07.050Z,71.38
2023-03-20T07:33:34.013Z,71.45
2023-03-20T07:36:01.116Z,71.21
2023-03-20T07:38:28.118Z,71.27
2023-03-20T07:41:06.090Z,71.20
2023-03-20T07:43:34.942Z,71.27
2023-03-20T07:46:20.241Z,71.28
2023-03-20T07:48:47.019Z,71.37
2023-03-20T07:51:13.833Z,71.35
2023-03-20T07:53:40.952Z,71.45
2023-03-20T07:56:08.252Z,71.26
2023-03-20T07:58:36.638Z,71.18
2023-03-20T08:01:04.129Z,71.32
2023-03-20T08:03:31.845Z,71.45
2023-03-20T08:05:58.749Z,71.69
2023-03-20T08:08:25.794Z,71.64
2023-03-20T08:10:52.590Z,71.48
2023-03-20T08:13:19.447Z,71.52
2023-03-20T08:15:47.300Z,71.61
2023-03-20T08:18:14.089Z,71.61
2023-03-20T08:20:40.902Z,71.60
2023-03-20T08:23:08.043Z,71.86
2023-03-20T08:25:35.292Z,71.76
2023-03-20T08:28:02.448Z,71.67
2023-03-20T08:30:29.549Z,71.70
2023-03-20T08:32:56.646Z,71.66
2023-03-20T08:35:32.982Z,71.78
2023-03-20T08:38:01.477Z,71.95
2023-03-20T08:40:28.684Z,72.14
2023-03-20T08:42:55.673Z,71.83
2023-03-20T08:45:25.939Z,71.97
2023-03-20T08:47:53.080Z,72.19
2023-03-20T08:50:19.939Z,72.25
2023-03-20T08:52:47.246Z,72.14
2023-03-20T08:55:15.182Z,72.51
2023-03-20T08:57:42.052Z,72.39
2023-03-20T09:00:13.985Z,72.45
2023-03-20T09:02:40.816Z,72.61
2023-03-20T09:05:08.126Z,72.64
2023-03-20T09:07:35.062Z,72.42
2023-03-20T09:10:01.909Z,72.42
2023-03-20T09:12:28.733Z,72.38
2023-03-20T09:14:55.475Z,72.59
2023-03-20T09:17:22.362Z,72.56
2023-03-20T09:19:49.261Z,72.58
2023-03-20T09:22:18.247Z,72.38
2023-03-20T09:24:45.822Z,72.54
2023-03-20T09:27:16.425Z,72.38
2023-03-20T09:29:43.932Z,72.45
2023-03-20T09:32:15.470Z,72.67
2023-03-20T09:34:42.378Z,72.80
2023-03-20T09:37:09.518Z,72.74
2023-03-20T09:39:36.476Z,72.63
2023-03-20T09:42:20.867Z,72.72
2023-03-20T09:44:50.555Z,72.74
2023-03-20T09:47:43.514Z,72.68
2023-03-20T09:50:31.625Z,72.50
2023-03-20T09:53:07.392Z,72.59
2023-03-20T09:55:40.369Z,72.48
2023-03-20T09:58:32.389Z,72.54
2023-03-20T10:01:01.268Z,72.45
2023-03-20T10:03:36.857Z,72.84
2023-03-20T10:06:06.117Z,72.70
2023-03-20T10:08:37.714Z,72.81
2023-03-20T10:11:23.769Z,72.82
2023-03-20T10:14:12.660Z,72.81
2023-03-20T10:17:07.942Z,72.77
2023-03-20T10:19:51.316Z,72.87
2023-03-20T10:22:26.661Z,72.80
2023-03-20T10:25:05.767Z,72.49
2023-03-20T10:27:39.760Z,72.70
2023-03-20T10:30:35.128Z,72.80
2023-03-20T10:33:11.274Z,72.79
2023-03-20T10:36:02.327Z,72.76
2023-03-20T10:38:50.239Z,72.89
2023-03-20T10:41:22.554Z,73.14
2023-03-20T10:43:52.950Z,72.94
2023-03-20T10:46:27.615Z,73.06
2023-03-20T10:49:02.852Z,73.05
2023-03-20T10:51:48.830Z,73.09
2023-03-20T10:54:34.204Z,73.05
2023-03-20T10:57:03.961Z,72.74
2023-03-20T10:59:51.188Z,72.93
2023-03-20T11:02:23.573Z,72.82
2023-03-20T11:04:51.430Z,72.81
2023-03-20T11:07:32.291Z,72.63
2023-03-20T11:10:05.370Z,72.61
2023-03-20T11:12:35.763Z,72.80
2023-03-20T11:15:24.580Z,72.70
2023-03-20T11:18:03.907Z,72.71
2023-03-20T11:20:55.627Z,72.90
2023-03-20T11:23:33.371Z,72.70
2023-03-20T11:26:08.089Z,72.49
2023-03-20T11:28:37.531Z,72.47
2023-03-20T11:31:17.725Z,72.26
2023-03-20T11:34:04.877Z,72.12
2023-03-20T11:36:34.857Z,72.15
2023-03-20T11:39:12.294Z,72.05
2023-03-20T11:41:45.390Z,72.10
2023-03-20T11:44:29.841Z,72.42
2023-03-20T11:47:06.155Z,72.27
2023-03-20T11:49:46.022Z,72.56
2023-03-20T11:52:17.156Z,72.34
2023-03-20T11:54:50.483Z,72.43
2023-03-20T11:57:33.473Z,72.43
2023-03-20T12:00:19.676Z,72.04
2023-03-20T12:02:46.951Z,72.16
2023-03-20T12:05:36.909Z,71.94
2023-03-20T12:08:36.867Z,71.89
2023-03-20T12:11:20.952Z,71.60
2023-03-20T12:13:51.485Z,71.58
2023-03-20T12:16:25.269Z,71.59
2023-03-20T12:18:57.613Z,71.65
2023-03-20T12:21:36.331Z,71.52
2023-03-20T12:24:13.819Z,71.48
2023-03-20T12:27:26.086Z,71.40
2023-03-20T12:30:01.293Z,71.50
2023-03-20T12:32:31.717Z,71.45
2023-03-20T12:35:09.914Z,71.50
2023-03-20T12:37:37.155Z,71.54
2023-03-20T12:40:05.462Z,71.28
2023-03-20T12:42:53.995Z,71.40
2023-03-20T12:45:32.523Z,71.29
2023-03-20T12:48:05.758Z,71.07
2023-03-20T12:50:39.936Z,71.34
2023-03-20T12:53:10.176Z,71.35
2023-03-20T12:56:07.416Z,71.08
2023-03-20T12:59:01.702Z,70.87
2023-03-20T13:01:32.537Z,70.71
2023-03-20T13:04:05.139Z,70.44
2023-03-20T13:06:55.493Z,70.68
2023-03-20T13:10:04.113Z,70.53
2023-03-20T13:12:55.833Z,70.18
2023-03-20T13:15:47.708Z,69.98
2023-03-20T13:18:30.827Z,69.80
2023-03-20T13:21:05.597Z,69.75
2023-03-20T13:24:13.003Z,69.79
2023-03-20T13:26:48.536Z,69.73
2023-03-20T13:29:36.273Z,69.83
2023-03-20T13:32:34.276Z,69.82
2023-03-20T13:35:10.582Z,69.97
2023-03-20T13:38:09.766Z,70.07
2023-03-20T13:40:47.308Z,70.10
2023-03-20T13:43:54.913Z,69.66
2023-03-20T13:46:29.102Z,69.75
2023-03-20T13:49:14.392Z,69.92
2023-03-20T13:51:59.678Z,70.11
2023-03-20T13:54:46.887Z,69.91
2023-03-20T13:57:22.922Z,69.79
2023-03-20T14:00:08.424Z,70.12
2023-03-20T14:03:10.956Z,69.94
2023-03-20T14:05:42.290Z,70.10
2023-03-20T14:08:47.916Z,70.12
2023-03-20T14:11:24.339Z,70.10
2023-03-20T14:13:55.496Z,70.27
2023-03-20T14:16:23.976Z,70.07
2023-03-20T14:19:25.612Z,69.88
2023-03-20T14:21:57.815Z,69.90
2023-03-20T14:24:27.853Z,69.92
2023-03-20T14:27:00.776Z,69.68
2023-03-20T14:29:30.962Z,69.74
2023-03-20T14:32:13.373Z,69.56
2023-03-20T14:35:04.460Z,69.42
2023-03-20T14:37:38.025Z,69.21
2023-03-20T14:40:20.777Z,69.36
2023-03-20T14:42:50.866Z,69.26
2023-03-20T14:45:31.218Z,69.11
2023-03-20T14:48:09.657Z,69.27
2023-03-20T14:51:02.909Z,69.20
2023-03-20T14:53:33.025Z,69.19
2023-03-20T14:56:09.696Z,69.23
2023-03-20T14:58:53.747Z,69.12
2023-03-20T15:01:20.703Z,68.91
2023-03-20T15:03:51.583Z,68.90
2023-03-20T15:06:21.644Z,68.79
2023-03-20T15:08:58.349Z,68.81
2023-03-20T15:11:26.230Z,68.86
2023-03-20T15:13:55.695Z,68.82
2023-03-20T15:16:31.679Z,68.54
2023-03-20T15:18:59.100Z,68.41
2023-03-20T15:21:41.399Z,68.46
2023-03-20T15:24:08.550Z,68.44
2023-03-20T15:26:36.624Z,68.34
2023-03-20T15:29:06.963Z,68.47
2023-03-20T15:31:37.469Z,68.61
2023-03-20T15:34:09.771Z,68.76
2023-03-20T15:36:40.068Z,68.65
2023-03-20T15:39:13.332Z,69.02
2023-03-20T15:41:40.666Z,69.07
2023-03-20T15:44:24.491Z,69.14
2023-03-20T15:46:58.474Z,69.52
2023-03-20T15:49:26.292Z,69.58
2023-03-20T15:51:56.237Z,69.70
2023-03-20T15:54:23.457Z,69.66
2023-03-20T15:56:52.604Z,69.81
2023-03-20T15:59:25.095Z,69.93
2023-03-20T16:01:56.254Z,69.87
2023-03-20T16:04:23.528Z,70.00
2023-03-20T16:07:05.756Z,69.91
2023-03-20T16:09:43.898Z,69.92
2023-03-20T16:12:17.791Z,69.97
2023-03-20T16:14:46.272Z,69.82
2023-03-20T16:17:14.365Z,69.79
2023-03-20T16:19:41.504Z,69.96
2023-03-20T16:22:18.069Z,69.94
2023-03-20T16:24:48.968Z,69.77
2023-03-20T16:27:24.544Z,69.77
2023-03-20T16:29:53.476Z,69.62
2023-03-20T16:32:38.273Z,69.80
2023-03-20T16:35:14.371Z,69.83
2023-03-20T16:37:56.762Z,69.81
2023-03-20T16:40:36.969Z,69.63
2023-03-20T16:43:14.542Z,69.66
2023-03-20T16:45:49.376Z,69.48
2023-03-20T16:48:16.796Z,69.88
2023-03-20T16:50:45.802Z,69.83
2023-03-20T16:53:26.659Z,69.70
2023-03-20T16:55:56.905Z,69.67
2023-03-20T16:58:29.602Z,69.44
2023-03-20T17:01:10.073Z,69.59
2023-03-20T17:03:48.800Z,69.50
2023-03-20T17:06:21.889Z,69.40
2023-03-20T17:08:54.829Z,69.38
2023-03-20T17:11:40.064Z,69.43
2023-03-20T17:14:16.963Z,69.23
2023-03-20T17:16:44.383Z,69.22
2023-03-20T17:19:16.635Z,69.22
2023-03-20T17:21:46.154Z,69.15
2023-03-20T17:24:14.496Z,69.07
2023-03-20T17:26:43.660Z,69.29
2023-03-20T17:29:13.037Z,69.24
2023-03-20T17:31:40.733Z,69.18
2023-03-20T17:34:07.905Z,69.16
2023-03-20T17:36:35.986Z,69.20
2023-03-20T17:39:02.996Z,69.25
2023-03-20T17:41:30.556Z,69.18
2023-03-20T17:43:57.516Z,69.24
2023-03-20T17:46:30.628Z,69.13
2023-03-20T17:49:04.861Z,69.27
2023-03-20T17:51:33.734Z,69.25
2023-03-20T17:54:01.255Z,69.10
2023-03-20T17:56:30.554Z,69.12
2023-03-20T17:58:58.648Z,69.21
2023-03-20T18:01:28.061Z,69.21
2023-03-20T18:03:56.252Z,69.17
2023-03-20T18:06:27.433Z,69.25
2023-03-20T18:08:55.876Z,69.27
2023-03-20T18:11:24.535Z,69.41
2023-03-20T18:13:52.341Z,69.29
2023-03-20T18:16:26.037Z,69.28
2023-03-20T18:18:55.486Z,69.13
2023-03-20T18:21:23.756Z,69.14
2023-03-20T18:23:51.821Z,69.01
2023-03-20T18:26:20.206Z,69.35
2023-03-20T18:28:50.668Z,69.31
2023-03-20T18:31:20.970Z,69.40
2023-03-20T18:33:49.587Z,69.30
2023-03-20T18:36:22.597Z,69.39
2023-03-20T18:38:52.833Z,69.34
2023-03-20T18:41:20.738Z,69.54
2023-03-20T18:43:49.396Z,69.60
2023-03-20T18:46:20.158Z,69.43
2023-03-20T18:48:48.325Z,69.54
2023-03-20T18:51:17.846Z,69.50
2023-03-20T18:53:47.041Z,69.45
2023-03-20T18:56:23.335Z,69.61
2023-03-20T18:58:50.336Z,69.83
2023-03-20T19:01:17.504Z,69.51
2023-03-20T19:03:47.330Z,69.72
2023-03-20T19:06:19.855Z,69.71
2023-03-20T19:08:48.179Z,69.72
2023-03-20T19:11:17.887Z,69.52
2023-03-20T19:13:52.596Z,69.65
2023-03-20T19:16:27.777Z,69.62
2023-03-20T19:18:58.659Z,69.72
2023-03-20T19:21:26.613Z,69.82
2023-03-20T19:23:54.780Z,69.71
2023-03-20T19:26:22.361Z,69.65
2023-03-20T19:28:49.789Z,69.81
2023-03-20T19:31:17.853Z,69.83
2023-03-20T19:33:45.210Z,69.69
2023-03-20T19:36:27.028Z,69.60
2023-03-20T19:38:56.095Z,69.77
2023-03-20T19:41:25.716Z,69.78
2023-03-20T19:43:55.312Z,69.81
2023-03-20T19:46:41.109Z,69.69
2023-03-20T19:49:18.127Z,69.79
2023-03-20T19:51:48.220Z,69.89
2023-03-20T19:54:16.880Z,69.54
2023-03-20T19:56:46.263Z,69.68
2023-03-20T19:59:21.077Z,69.83
2023-03-20T20:01:48.837Z,69.71
2023-03-20T20:04:16.577Z,69.58
2023-03-20T20:06:47.488Z,69.59
2023-03-20T20:09:15.597Z,69.64
2023-03-20T20:11:42.769Z,69.52
2023-03-20T20:14:14.511Z,69.68
2023-03-20T20:16:46.072Z,69.42
2023-03-20T20:19:14.582Z,69.39
2023-03-20T20:24:31.443Z,69.14
2023-03-20T20:29:50.890Z,69.24
2023-03-20T20:32:21.516Z,68.88
2023-03-20T20:38:27.102Z,68.79
2023-03-20T20:40:30.754Z,68.62
2023-03-20T20:43:01.582Z,68.84
2023-03-20T20:45:31.335Z,68.70
2023-03-20T20:47:59.592Z,68.62
2023-03-20T20:50:28.672Z,68.69
2023-03-20T20:52:56.995Z,68.51
2023-03-20T20:55:25.178Z,68.33
2023-03-20T20:57:54.133Z,68.46
2023-03-20T21:00:37.238Z,68.34
2023-03-20T21:03:12.779Z,68.19
2023-03-20T21:05:44.511Z,68.23
2023-03-20T21:08:14.620Z,67.99
2023-03-20T21:10:44.480Z,68.09
2023-03-20T21:13:12.285Z,67.83
2023-03-20T21:15:41.256Z,67.99
2023-03-20T21:18:08.747Z,67.95
2023-03-20T21:20:37.363Z,67.84
2023-03-20T21:23:06.298Z,67.87
2023-03-20T21:25:44.666Z,67.88
2023-03-20T21:28:14.745Z,67.96
2023-03-20T21:31:06.070Z,67.82
2023-03-20T21:33:35.970Z,67.79
2023-03-20T21:36:03.982Z,68.04
2023-03-20T21:39:06.009Z,68.05
2023-03-20T21:41:18.502Z,67.76
2023-03-20T21:43:47.307Z,67.78
2023-03-20T21:46:48.713Z,67.90
2023-03-20T21:50:17.135Z,67.79
2023-03-20T21:55:11.224Z,67.60
2023-03-20T21:58:04.231Z,67.65
2023-03-20T22:01:04.195Z,67.81
2023-03-20T22:03:09.096Z,67.80
2023-03-20T22:06:18.749Z,67.90
2023-03-20T22:14:56.750Z,67.70
2023-03-20T22:26:10.178Z,67.86
2023-03-20T22:39:50.932Z,67.98
2023-03-20T22:45:01.881Z,68.02
2023-03-20T22:47:29.580Z,67.99
2023-03-20T22:49:56.501Z,68.20
2023-03-20T22:52:34.746Z,68.33
2023-03-20T22:55:06.703Z,68.29
2023-03-20T22:57:42.409Z,68.15
2023-03-20T23:00:17.511Z,68.02
2023-03-20T23:02:44.714Z,68.07
2023-03-20T23:05:30.249Z,68.07
2023-03-20T23:08:15.818Z,67.93
2023-03-20T23:10:47.581Z,67.99
2023-03-20T23:13:15.759Z,67.88
2023-03-20T23:15:45.932Z,67.71
2023-03-20T23:18:14.788Z,67.98
2023-03-20T23:20:41.784Z,68.09
2023-03-20T23:23:09.425Z,67.92
2023-03-20T23:25:39.732Z,68.05
2023-03-20T23:28:10.480Z,67.99
2023-03-20T23:30:46.516Z,68.11
2023-03-20T23:33:16.361Z,68.30
2023-03-20T23:35:43.427Z,68.27
2023-03-20T23:38:10.500Z,68.39
2023-03-20T23:40:38.319Z,68.18
2023-03-20T23:43:05.686Z,68.24
2023-03-20T23:45:33.004Z,68.22
2023-03-20T23:48:00.071Z,68.17
2023-03-20T23:50:34.417Z,68.13
2023-03-20T23:53:19.533Z,67.81
2023-03-20T23:55:49.300Z,67.90
2023-03-20T23:58:16.903Z,67.77
